Time;durP1;ratioP1;P1;durP2;ratioP2;P2;SDS_P1;SDS_P2;PMS_P1;PMS_P2;Temp;Humidity;BMP_temperature;BMP_pressure;BME280_temperature;BME280_humidity;BME280_pressure;Samples;Min_cycle;Max_cycle;Signal;HPM_P1;HPM_P2
2022/11/09 00:01:20;;;;;;;;;;;14.80;99.90;;;;;;5065581;28;20163;-78
2022/11/09 00:03:46;;;;;;;;;;;14.80;99.90;;;;;;5062804;28;19917;-77
2022/11/09 00:06:12;;;;;;;;;;;14.90;99.90;;;;;;5068984;28;19920;-77
2022/11/09 00:08:39;;;;;;;;;;;14.90;99.90;;;;;;5069587;28;20806;-78
2022/11/09 00:11:05;;;;;;;;;;;14.90;99.90;;;;;;5069108;28;19921;-77
2022/11/09 00:13:34;;;;;;;;;;;14.90;99.90;;;;;;5068154;28;20105;-78
2022/11/09 00:16:01;;;;;;;;;;;14.90;99.90;;;;;;5069796;28;19919;-76
2022/11/09 00:18:27;;;;;;;;;;;14.90;99.90;;;;;;5062273;28;19958;-77
2022/11/09 00:20:52;;;;;;;;;;;15.00;99.90;;;;;;5066266;28;19916;-77
2022/11/09 00:23:18;;;;;;;;;;;14.90;99.90;;;;;;5060311;28;20406;-76
2022/11/09 00:25:44;;;;;;;;;;;14.80;99.90;;;;;;5068877;28;19916;-77
2022/11/09 00:28:09;;;;;;;;;;;14.80;99.90;;;;;;5064887;28;19921;-76
2022/11/09 00:30:35;;;;;;;;;;;14.90;99.90;;;;;;5065651;28;19920;-77
2022/11/09 00:33:00;;;;;;;;;;;14.90;99.90;;;;;;5066854;28;20850;-77
2022/11/09 00:35:26;;;;;;;;;;;14.90;99.90;;;;;;5057452;28;20652;-76
2022/11/09 00:37:51;;;;;;;;;;;14.70;99.90;;;;;;5061396;28;19917;-77
2022/11/09 00:40:17;;;;;;;;;;;14.80;99.90;;;;;;5067072;28;19913;-77
2022/11/09 00:42:42;;;;;;;;;;;14.80;99.90;;;;;;5067239;28;19950;-78
2022/11/09 00:45:08;;;;;;;;;;;14.80;99.90;;;;;;5064913;28;19989;-77
2022/11/09 00:47:34;;;;;;;;;;;14.90;99.90;;;;;;5060361;28;20456;-76
2022/11/09 00:49:59;;;;;;;;;;;14.90;99.90;;;;;;5067440;28;19975;-77
2022/11/09 00:52:25;;;;;;;;;;;14.70;99.90;;;;;;5067425;28;19960;-78
2022/11/09 00:54:50;;;;;;;;;;;14.50;99.90;;;;;;5064901;28;19928;-77
2022/11/09 00:57:16;;;;;;;;;;;14.40;99.90;;;;;;5069104;28;20280;-78
2022/11/09 00:59:41;;;;;;;;;;;14.10;99.90;;;;;;5061440;28;19940;-77
2022/11/09 01:02:07;;;;;;;;;;;14.10;99.90;;;;;;5066812;28;19920;-77
2022/11/09 01:04:32;;;;;;;;;;;14.10;99.90;;;;;;5060159;28;19923;-78
2022/11/09 01:06:58;;;;;;;;;;;14.20;99.90;;;;;;5077045;28;20577;-77
2022/11/09 01:09:23;;;;;;;;;;;14.30;99.90;;;;;;5066150;28;20325;-77
2022/11/09 01:11:51;;;;;;;;;;;14.20;99.90;;;;;;5067474;28;20453;-77
2022/11/09 01:14:16;;;;;;;;;;;14.10;99.90;;;;;;5064537;28;20388;-77
2022/11/09 01:16:42;;;;;;;;;;;14.10;99.90;;;;;;5062050;28;19918;-77
2022/11/09 01:19:07;;;;;;;;;;;14.10;99.90;;;;;;5068996;28;19920;-78
2022/11/09 01:21:33;;;;;;;;;;;14.10;99.90;;;;;;5059042;28;19971;-77
2022/11/09 01:24:00;;;;;;;;;;;13.90;99.90;;;;;;5067742;28;20653;-77
2022/11/09 01:26:26;;;;;;;;;;;13.90;99.90;;;;;;5067880;28;19917;-77
2022/11/09 01:28:52;;;;;;;;;;;13.90;99.90;;;;;;5068050;28;19965;-77
2022/11/09 01:31:18;;;;;;;;;;;13.90;99.90;;;;;;5055079;28;19920;-77
2022/11/09 01:33:44;;;;;;;;;;;13.90;99.90;;;;;;5067674;28;19923;-77
2022/11/09 01:36:14;;;;;;;;;;;13.90;99.90;;;;;;5065545;28;19916;-77
2022/11/09 01:38:41;;;;;;;;;;;13.90;99.90;;;;;;5064449;28;19924;-77
2022/11/09 01:41:08;;;;;;;;;;;13.80;99.90;;;;;;5065865;28;20039;-77
2022/11/09 01:43:34;;;;;;;;;;;13.80;99.90;;;;;;5059508;28;19926;-77
2022/11/09 01:46:11;;;;;;;;;;;13.80;99.90;;;;;;5064801;28;19920;-77
2022/11/09 01:48:36;;;;;;;;;;;13.80;99.90;;;;;;5064061;28;19923;-77
2022/11/09 01:51:06;;;;;;;;;;;13.60;99.90;;;;;;5058554;28;19920;-77
2022/11/09 01:53:33;;;;;;;;;;;13.60;99.90;;;;;;5061804;28;19931;-76
2022/11/09 01:56:00;;;;;;;;;;;13.60;99.90;;;;;;5066291;28;20454;-76
2022/11/09 01:58:40;;;;;;;;;;;13.50;99.90;;;;;;5062731;28;19917;-77
2022/11/09 02:01:09;;;;;;;;;;;13.70;99.90;;;;;;5067721;28;20349;-77
2022/11/09 02:03:43;;;;;;;;;;;13.70;99.90;;;;;;5065472;28;19916;-77
2022/11/09 02:06:10;;;;;;;;;;;13.70;99.90;;;;;;5061568;28;20042;-77
2022/11/09 02:08:36;;;;;;;;;;;13.70;99.90;;;;;;5063731;28;19923;-78
2022/11/09 02:11:01;;;;;;;;;;;13.70;99.90;;;;;;5065996;28;19928;-77
2022/11/09 02:13:28;;;;;;;;;;;13.70;99.90;;;;;;5062746;28;20322;-77
2022/11/09 02:15:53;;;;;;;;;;;13.70;99.90;;;;;;5064174;28;19916;-77
2022/11/09 02:18:19;;;;;;;;;;;13.60;99.90;;;;;;5065147;28;19970;-76
2022/11/09 02:20:46;;;;;;;;;;;13.50;99.90;;;;;;5060040;28;19916;-77
2022/11/09 02:23:12;;;;;;;;;;;13.40;99.90;;;;;;5061484;28;19927;-78
2022/11/09 02:25:37;;;;;;;;;;;13.30;99.90;;;;;;5066316;28;19924;-77
2022/11/09 02:28:03;;;;;;;;;;;13.30;99.90;;;;;;5066284;28;20023;-77
2022/11/09 02:30:30;;;;;;;;;;;13.20;99.90;;;;;;5070547;28;19931;-77
2022/11/09 02:32:55;;;;;;;;;;;13.10;99.90;;;;;;5069927;28;20257;-77
2022/11/09 02:35:21;;;;;;;;;;;13.10;99.90;;;;;;5070602;28;20014;-76
2022/11/09 02:37:48;;;;;;;;;;;13.00;99.90;;;;;;5071223;28;19918;-76
2022/11/09 02:40:16;;;;;;;;;;;13.00;99.90;;;;;;5065260;28;19917;-76
2022/11/09 02:42:42;;;;;;;;;;;13.10;99.90;;;;;;5070312;28;20788;-76
2022/11/09 02:45:08;;;;;;;;;;;13.10;99.90;;;;;;5062882;28;20195;-77
2022/11/09 02:47:33;;;;;;;;;;;13.10;99.90;;;;;;5071100;28;19923;-76
2022/11/09 02:49:59;;;;;;;;;;;13.00;99.90;;;;;;5067907;28;20779;-76
2022/11/09 02:52:24;;;;;;;;;;;13.00;99.90;;;;;;5067629;28;20431;-76
2022/11/09 02:54:50;;;;;;;;;;;13.10;99.90;;;;;;5069495;28;20011;-76
2022/11/09 02:57:16;;;;;;;;;;;13.30;99.90;;;;;;5070435;28;20031;-76
2022/11/09 02:59:41;;;;;;;;;;;13.20;99.90;;;;;;5063505;28;19951;-76
2022/11/09 03:02:07;;;;;;;;;;;13.10;99.90;;;;;;5070623;28;20394;-76
2022/11/09 03:04:32;;;;;;;;;;;13.20;99.90;;;;;;5070554;28;19993;-76
2022/11/09 03:06:58;;;;;;;;;;;13.30;99.90;;;;;;5070661;28;19920;-76
2022/11/09 03:09:23;;;;;;;;;;;13.30;99.90;;;;;;5070735;28;19930;-77
2022/11/09 03:11:49;;;;;;;;;;;13.30;99.90;;;;;;5070008;28;20758;-75
2022/11/09 03:14:15;;;;;;;;;;;13.40;99.90;;;;;;5068138;28;20358;-76
2022/11/09 03:16:41;;;;;;;;;;;13.40;99.90;;;;;;5068974;28;19928;-75
2022/11/09 03:19:06;;;;;;;;;;;13.40;99.90;;;;;;5064887;28;19921;-76
2022/11/09 03:21:32;;;;;;;;;;;13.40;99.90;;;;;;5069458;28;19921;-76
2022/11/09 03:23:57;;;;;;;;;;;13.50;99.90;;;;;;5070081;28;19920;-76
2022/11/09 03:26:23;;;;;;;;;;;13.60;99.90;;;;;;5062490;28;20433;-77
2022/11/09 03:28:48;;;;;;;;;;;13.30;99.90;;;;;;5063160;28;20654;-77
2022/11/09 03:31:14;;;;;;;;;;;13.10;99.90;;;;;;5063846;28;20444;-76
2022/11/09 03:33:39;;;;;;;;;;;13.10;99.90;;;;;;5058561;28;19921;-76
2022/11/09 03:36:05;;;;;;;;;;;12.90;99.90;;;;;;5065168;28;19927;-76
2022/11/09 03:38:31;;;;;;;;;;;12.80;99.90;;;;;;5069313;28;19937;-76
2022/11/09 03:41:00;;;;;;;;;;;12.90;99.90;;;;;;5064075;28;19925;-76
2022/11/09 03:43:29;;;;;;;;;;;12.80;99.90;;;;;;5067400;28;19940;-77
2022/11/09 03:45:55;;;;;;;;;;;13.00;99.90;;;;;;5068713;28;20261;-77
2022/11/09 03:48:21;;;;;;;;;;;13.10;99.90;;;;;;5067212;28;19990;-77
2022/11/09 03:50:46;;;;;;;;;;;13.10;99.90;;;;;;5068589;28;20463;-77
2022/11/09 03:53:12;;;;;;;;;;;13.10;99.90;;;;;;5070122;28;19998;-77
2022/11/09 03:55:38;;;;;;;;;;;13.10;99.90;;;;;;5061668;28;20451;-76
2022/11/09 03:58:04;;;;;;;;;;;13.30;99.90;;;;;;5060355;28;19916;-76
2022/11/09 04:00:30;;;;;;;;;;;13.30;99.90;;;;;;5076009;28;19926;-76
2022/11/09 04:02:56;;;;;;;;;;;13.10;99.90;;;;;;5061540;28;19966;-76
2022/11/09 04:05:22;;;;;;;;;;;13.00;99.90;;;;;;5067710;28;19951;-77
2022/11/09 04:07:52;;;;;;;;;;;13.00;99.90;;;;;;5067193;28;19951;-77
2022/11/09 04:10:18;;;;;;;;;;;13.00;99.90;;;;;;5062434;28;19967;-77
2022/11/09 04:12:43;;;;;;;;;;;13.00;99.90;;;;;;5061915;28;19951;-76
2022/11/09 04:15:09;;;;;;;;;;;13.10;99.90;;;;;;5068610;28;19913;-76
2022/11/09 04:17:34;;;;;;;;;;;13.20;99.90;;;;;;5066942;28;20860;-76
2022/11/09 04:20:00;;;;;;;;;;;13.30;99.90;;;;;;5060073;28;20379;-76
2022/11/09 04:22:26;;;;;;;;;;;13.40;99.90;;;;;;5065899;28;19920;-76
2022/11/09 04:24:51;;;;;;;;;;;13.40;99.90;;;;;;5059154;28;20497;-75
2022/11/09 04:27:17;;;;;;;;;;;13.40;99.90;;;;;;5067576;28;20427;-75
2022/11/09 04:29:42;;;;;;;;;;;13.40;99.90;;;;;;5057873;28;20026;-76
2022/11/09 04:32:08;;;;;;;;;;;13.50;99.90;;;;;;5065517;28;20007;-75
2022/11/09 04:34:33;;;;;;;;;;;13.50;99.90;;;;;;5056554;28;19999;-75
2022/11/09 04:36:59;;;;;;;;;;;13.50;99.90;;;;;;5060230;28;19917;-75
2022/11/09 04:39:24;;;;;;;;;;;13.30;99.90;;;;;;5066034;28;19913;-75
2022/11/09 04:41:50;;;;;;;;;;;13.20;99.90;;;;;;5064466;28;19926;-76
2022/11/09 04:44:16;;;;;;;;;;;13.20;99.90;;;;;;5068893;28;20006;-76
2022/11/09 04:46:41;;;;;;;;;;;13.30;99.90;;;;;;5062872;28;19991;-75
2022/11/09 04:49:07;;;;;;;;;;;13.30;99.90;;;;;;5066850;28;19912;-75
2022/11/09 04:51:32;;;;;;;;;;;13.50;99.90;;;;;;5061229;28;19927;-75
2022/11/09 04:53:58;;;;;;;;;;;13.50;99.90;;;;;;5068356;28;20274;-75
2022/11/09 04:56:23;;;;;;;;;;;13.40;99.90;;;;;;5061524;28;20080;-76
2022/11/09 04:58:49;;;;;;;;;;;13.30;99.90;;;;;;5063987;28;20121;-75
2022/11/09 05:01:15;;;;;;;;;;;13.40;99.90;;;;;;5056683;28;20177;-75
2022/11/09 05:03:40;;;;;;;;;;;13.40;99.90;;;;;;5066256;28;19917;-75
2022/11/09 05:08:51;;;;;;;;;;;13.40;99.90;;;;;;5062853;28;20438;-76
2022/11/09 05:11:16;;;;;;;;;;;13.50;99.90;;;;;;5062738;28;19925;-76
2022/11/09 05:13:42;;;;;;;;;;;13.50;99.90;;;;;;5060050;28;19917;-76
2022/11/09 05:16:07;;;;;;;;;;;13.50;99.90;;;;;;5067091;28;20032;-76
2022/11/09 05:18:33;;;;;;;;;;;13.30;99.90;;;;;;5064501;28;19954;-76
2022/11/09 05:20:59;;;;;;;;;;;13.40;99.90;;;;;;5064919;28;19942;-76
2022/11/09 05:26:09;;;;;;;;;;;13.00;99.90;;;;;;5068335;28;20636;-76
2022/11/09 05:28:35;;;;;;;;;;;12.80;99.90;;;;;;5064948;28;19920;-77
2022/11/09 05:31:00;;;;;;;;;;;12.60;99.90;;;;;;5054374;28;19921;-76
2022/11/09 05:33:26;;;;;;;;;;;12.50;99.90;;;;;;5064105;28;19919;-76
2022/11/09 05:35:54;;;;;;;;;;;12.50;99.90;;;;;;5066795;28;20277;-76
2022/11/09 05:38:20;;;;;;;;;;;12.40;99.90;;;;;;5064031;28;20591;-77
2022/11/09 05:40:47;;;;;;;;;;;12.50;99.90;;;;;;5067285;28;19966;-76
2022/11/09 05:43:12;;;;;;;;;;;12.60;99.90;;;;;;5058152;28;19990;-75
2022/11/09 05:45:38;;;;;;;;;;;12.50;99.90;;;;;;5062189;28;19920;-77
2022/11/09 05:48:04;;;;;;;;;;;12.50;99.90;;;;;;5065668;28;20567;-78
2022/11/09 05:50:29;;;;;;;;;;;12.60;99.90;;;;;;5064255;28;19924;-78
2022/11/09 05:52:57;;;;;;;;;;;12.60;99.90;;;;;;5058062;28;19970;-80
2022/11/09 05:55:23;;;;;;;;;;;12.70;99.90;;;;;;5063486;28;20394;-79
2022/11/09 05:57:48;;;;;;;;;;;12.80;99.90;;;;;;5057725;28;19920;-80
2022/11/09 06:00:14;;;;;;;;;;;12.90;99.90;;;;;;5056676;28;19917;-78
2022/11/09 06:02:39;;;;;;;;;;;13.00;99.90;;;;;;5064750;28;19927;-78
2022/11/09 06:05:05;;;;;;;;;;;13.10;99.90;;;;;;5061494;28;20028;-78
2022/11/09 06:07:31;;;;;;;;;;;13.10;99.90;;;;;;5060204;28;20384;-79
2022/11/09 06:09:57;;;;;;;;;;;13.10;99.90;;;;;;5065077;28;19912;-80
2022/11/09 06:12:22;;;;;;;;;;;13.10;99.90;;;;;;5055738;28;19951;-78
2022/11/09 06:14:48;;;;;;;;;;;13.10;99.90;;;;;;5059514;28;19924;-76
2022/11/09 06:17:13;;;;;;;;;;;13.10;99.90;;;;;;5064653;28;19913;-77
2022/11/09 06:19:39;;;;;;;;;;;13.10;99.90;;;;;;5062099;28;19916;-79
2022/11/09 06:22:04;;;;;;;;;;;13.20;99.90;;;;;;5064403;28;19917;-77
2022/11/09 06:24:30;;;;;;;;;;;13.10;99.90;;;;;;5062454;28;19931;-77
2022/11/09 06:26:55;;;;;;;;;;;13.20;99.90;;;;;;5053305;28;19912;-78
2022/11/09 06:29:21;;;;;;;;;;;13.30;99.90;;;;;;5060615;28;19916;-77
2022/11/09 06:31:47;;;;;;;;;;;13.30;99.90;;;;;;5053784;28;19921;-77
2022/11/09 06:34:14;;;;;;;;;;;13.30;99.90;;;;;;5062173;28;19916;-76
2022/11/09 06:36:39;;;;;;;;;;;13.30;99.90;;;;;;5067416;28;19934;-75
2022/11/09 06:39:07;;;;;;;;;;;13.30;99.90;;;;;;5065273;28;20435;-76
2022/11/09 06:41:33;;;;;;;;;;;13.30;99.90;;;;;;5064706;28;20425;-75
2022/11/09 06:43:58;;;;;;;;;;;13.30;99.90;;;;;;5060842;28;20296;-75
2022/11/09 06:46:24;;;;;;;;;;;13.40;99.90;;;;;;5066667;28;19921;-75
2022/11/09 06:48:49;;;;;;;;;;;13.30;99.90;;;;;;5056139;28;19917;-76
2022/11/09 06:51:15;;;;;;;;;;;13.30;99.90;;;;;;5048970;28;20661;-76
2022/11/09 06:53:40;;;;;;;;;;;13.30;99.90;;;;;;5063122;28;20617;-76
2022/11/09 06:56:06;;;;;;;;;;;13.40;99.90;;;;;;5058873;28;19920;-76
2022/11/09 06:58:32;;;;;;;;;;;13.40;99.90;;;;;;5065642;28;20371;-76
2022/11/09 07:00:58;;;;;;;;;;;13.30;99.90;;;;;;5059660;28;20015;-76
2022/11/09 07:03:24;;;;;;;;;;;13.30;99.90;;;;;;5065624;28;19951;-76
2022/11/09 07:05:51;;;;;;;;;;;13.40;99.90;;;;;;5064988;28;19924;-76
2022/11/09 07:08:16;;;;;;;;;;;13.40;99.90;;;;;;5051274;28;19990;-76
2022/11/09 07:10:42;;;;;;;;;;;13.30;99.90;;;;;;5053639;28;19928;-75
2022/11/09 07:13:08;;;;;;;;;;;13.30;99.90;;;;;;5051702;28;19913;-75
2022/11/09 07:15:35;;;;;;;;;;;13.40;99.90;;;;;;5060376;28;19917;-75
2022/11/09 07:18:01;;;;;;;;;;;13.40;99.90;;;;;;5063170;28;19916;-76
2022/11/09 07:20:27;;;;;;;;;;;13.40;99.90;;;;;;5062077;28;19924;-76
2022/11/09 07:22:53;;;;;;;;;;;13.40;99.90;;;;;;5058014;28;20394;-76
2022/11/09 07:25:18;;;;;;;;;;;13.40;99.90;;;;;;5062469;28;19954;-75
2022/11/09 07:27:44;;;;;;;;;;;13.40;99.90;;;;;;5057972;28;19989;-76
2022/11/09 07:30:10;;;;;;;;;;;13.40;99.90;;;;;;5056837;28;20719;-75
2022/11/09 07:32:36;;;;;;;;;;;13.40;99.90;;;;;;5070396;28;20555;-75
2022/11/09 07:35:03;;;;;;;;;;;13.40;99.90;;;;;;5061265;28;19952;-75
2022/11/09 07:37:28;;;;;;;;;;;13.30;99.90;;;;;;5050417;28;19967;-76
2022/11/09 07:39:54;;;;;;;;;;;13.20;99.90;;;;;;5064304;28;19960;-76
2022/11/09 07:42:19;;;;;;;;;;;13.20;99.90;;;;;;5058920;28;19920;-74
2022/11/09 07:44:45;;;;;;;;;;;13.10;99.90;;;;;;5054158;28;20162;-75
2022/11/09 07:47:11;;;;;;;;;;;13.10;99.90;;;;;;5062326;28;19973;-75
2022/11/09 07:49:36;;;;;;;;;;;13.00;99.90;;;;;;5072842;28;19951;-78
2022/11/09 07:52:02;;;;;;;;;;;13.00;99.90;;;;;;5065499;28;19924;-75
2022/11/09 07:54:27;;;;;;;;;;;13.00;99.90;;;;;;5067808;28;19917;-74
2022/11/09 07:56:53;;;;;;;;;;;13.10;99.90;;;;;;5065274;28;19924;-75
2022/11/09 07:59:18;;;;;;;;;;;13.30;99.90;;;;;;5068517;28;19913;-75
2022/11/09 08:01:44;;;;;;;;;;;13.30;99.90;;;;;;5063942;28;19919;-75
2022/11/09 08:04:09;;;;;;;;;;;13.40;99.90;;;;;;5069673;28;19917;-75
2022/11/09 08:06:35;;;;;;;;;;;13.50;99.90;;;;;;5060848;28;19924;-75
2022/11/09 08:09:00;;;;;;;;;;;13.60;99.90;;;;;;5067340;28;19919;-75
2022/11/09 08:11:26;;;;;;;;;;;13.60;99.90;;;;;;5064054;28;20479;-75
2022/11/09 08:13:52;;;;;;;;;;;13.60;99.90;;;;;;5069983;28;19916;-75
2022/11/09 08:16:17;;;;;;;;;;;13.70;99.90;;;;;;5065387;28;20031;-75
2022/11/09 08:18:43;;;;;;;;;;;13.90;99.90;;;;;;5067145;28;19948;-75
2022/11/09 08:21:09;;;;;;;;;;;14.10;99.90;;;;;;5066889;28;19916;-75
2022/11/09 08:23:34;;;;;;;;;;;14.10;99.90;;;;;;5065091;28;19995;-75
2022/11/09 08:26:04;;;;;;;;;;;14.30;99.90;;;;;;5068060;28;20361;-75
2022/11/09 08:28:30;;;;;;;;;;;14.30;99.90;;;;;;5067864;28;19912;-75
2022/11/09 08:30:56;;;;;;;;;;;14.40;99.90;;;;;;5066136;28;20779;-75
2022/11/09 08:33:22;;;;;;;;;;;14.30;99.90;;;;;;5067713;28;19912;-75
2022/11/09 08:35:47;;;;;;;;;;;14.30;99.90;;;;;;5069578;28;20024;-75
2022/11/09 08:38:13;;;;;;;;;;;14.30;99.90;;;;;;5066577;28;19913;-75
2022/11/09 08:40:38;;;;;;;;;;;14.40;99.90;;;;;;5060922;28;20390;-76
2022/11/09 08:43:06;;;;;;;;;;;14.50;99.90;;;;;;5056882;28;19919;-75
2022/11/09 08:45:33;;;;;;;;;;;14.60;99.90;;;;;;5068566;28;19913;-75
2022/11/09 08:47:59;;;;;;;;;;;14.60;99.90;;;;;;5067805;28;20047;-75
2022/11/09 08:50:25;;;;;;;;;;;14.50;99.90;;;;;;5068694;28;20019;-75
2022/11/09 08:52:50;;;;;;;;;;;14.40;99.90;;;;;;5067827;28;19916;-75
2022/11/09 08:55:16;;;;;;;;;;;14.40;99.90;;;;;;5069202;28;19912;-75
2022/11/09 08:57:41;;;;;;;;;;;14.50;99.90;;;;;;5069056;28;19920;-75
2022/11/09 09:00:07;;;;;;;;;;;14.50;99.90;;;;;;5069253;28;20869;-75
2022/11/09 09:02:33;;;;;;;;;;;14.40;99.90;;;;;;5068283;28;19919;-75
2022/11/09 09:04:58;;;;;;;;;;;14.40;99.90;;;;;;5057546;28;20007;-76
2022/11/09 09:07:24;;;;;;;;;;;14.60;99.90;;;;;;5098641;28;19912;-75
2022/11/09 09:09:49;;;;;;;;;;;14.70;99.90;;;;;;5068491;28;20690;-76
2022/11/09 09:12:15;;;;;;;;;;;14.90;99.90;;;;;;5068876;28;19912;-75
2022/11/09 09:14:40;;;;;;;;;;;15.00;99.90;;;;;;5068535;28;19965;-75
2022/11/09 09:17:06;;;;;;;;;;;15.20;99.90;;;;;;5066936;28;19916;-75
2022/11/09 09:19:31;;;;;;;;;;;15.40;99.90;;;;;;5068547;28;19912;-76
2022/11/09 09:21:57;;;;;;;;;;;15.40;99.90;;;;;;5064978;28;19928;-76
2022/11/09 09:24:23;;;;;;;;;;;15.50;99.90;;;;;;5066797;28;19959;-76
2022/11/09 09:26:48;;;;;;;;;;;15.50;99.90;;;;;;5068565;28;19944;-76
2022/11/09 09:29:14;;;;;;;;;;;15.50;99.90;;;;;;5066026;28;19918;-76
2022/11/09 09:31:39;;;;;;;;;;;15.40;99.90;;;;;;5064433;28;19920;-75
2022/11/09 09:34:05;;;;;;;;;;;15.40;99.90;;;;;;5067936;28;19912;-76
2022/11/09 09:36:31;;;;;;;;;;;15.30;99.90;;;;;;5068668;28;20062;-76
2022/11/09 09:38:57;;;;;;;;;;;15.50;99.90;;;;;;5067350;28;19961;-76
2022/11/09 09:41:26;;;;;;;;;;;15.40;99.90;;;;;;5068005;28;19981;-76
2022/11/09 09:43:54;;;;;;;;;;;15.50;99.90;;;;;;5068365;28;19919;-75
2022/11/09 09:46:30;;;;;;;;;;;15.40;99.90;;;;;;5065462;28;19912;-76
2022/11/09 09:49:02;;;;;;;;;;;15.60;99.90;;;;;;5064239;28;19920;-76
2022/11/09 09:51:31;;;;;;;;;;;15.70;99.90;;;;;;5064082;28;19967;-76
2022/11/09 09:54:00;;;;;;;;;;;15.90;99.90;;;;;;5067804;28;20350;-76
2022/11/09 09:56:29;;;;;;;;;;;16.00;99.90;;;;;;5064827;28;19920;-76
2022/11/09 09:58:57;;;;;;;;;;;16.00;99.90;;;;;;5066668;28;19912;-76
2022/11/09 10:01:25;;;;;;;;;;;15.90;99.90;;;;;;5065766;28;20830;-76
2022/11/09 10:03:50;;;;;;;;;;;15.70;99.90;;;;;;5068112;28;19917;-76
2022/11/09 10:06:58;;;;;;;;;;;15.70;99.90;;;;;;5067674;28;20011;-76
2022/11/09 10:09:32;;;;;;;;;;;15.60;99.90;;;;;;5022240;28;19935;-77
2022/11/09 10:12:14;;;;;;;;;;;15.70;99.90;;;;;;5027948;28;20036;-76
2022/11/09 10:14:52;;;;;;;;;;;15.70;99.90;;;;;;5049815;28;20505;-76
2022/11/09 10:17:29;;;;;;;;;;;15.70;99.90;;;;;;5066981;28;19909;-76
2022/11/09 10:20:14;;;;;;;;;;;15.80;99.90;;;;;;5052140;28;20446;-75
2022/11/09 10:23:12;;;;;;;;;;;16.00;99.90;;;;;;5056550;28;19924;-76
2022/11/09 10:25:38;;;;;;;;;;;16.20;99.90;;;;;;5040755;28;19912;-76
2022/11/09 10:28:12;;;;;;;;;;;16.30;99.90;;;;;;5058263;28;20358;-77
2022/11/09 10:30:38;;;;;;;;;;;16.40;99.90;;;;;;5059977;28;19923;-76
2022/11/09 10:33:10;;;;;;;;;;;16.50;99.90;;;;;;5068269;28;19920;-76
2022/11/09 10:35:54;;;;;;;;;;;16.60;99.90;;;;;;5063675;28;19923;-75
2022/11/09 10:38:21;;;;;;;;;;;16.90;99.90;;;;;;5067229;28;19912;-75
2022/11/09 10:40:56;;;;;;;;;;;16.80;99.90;;;;;;5067383;28;19913;-76
2022/11/09 10:43:22;;;;;;;;;;;16.50;99.90;;;;;;5067954;28;20545;-76
2022/11/09 10:45:56;;;;;;;;;;;16.40;99.90;;;;;;5066223;28;19915;-76
2022/11/09 10:48:29;;;;;;;;;;;16.30;99.90;;;;;;5067575;28;19923;-76
2022/11/09 10:50:54;;;;;;;;;;;16.10;99.90;;;;;;5065122;28;20374;-76
2022/11/09 10:53:20;;;;;;;;;;;16.00;99.90;;;;;;5071982;28;19916;-75
2022/11/09 10:55:49;;;;;;;;;;;16.00;99.90;;;;;;5071477;28;20664;-76
2022/11/09 10:58:27;;;;;;;;;;;16.10;99.90;;;;;;5070047;28;19912;-75
2022/11/09 11:01:01;;;;;;;;;;;16.20;99.90;;;;;;5071358;28;19988;-75
2022/11/09 11:03:28;;;;;;;;;;;16.40;99.90;;;;;;5060651;28;20280;-77
2022/11/09 11:06:01;;;;;;;;;;;16.60;99.90;;;;;;5069367;28;19924;-75
2022/11/09 11:08:30;;;;;;;;;;;16.80;99.90;;;;;;5070160;28;20305;-76
2022/11/09 11:11:06;;;;;;;;;;;16.90;99.90;;;;;;5071317;28;20394;-76
2022/11/09 11:13:31;;;;;;;;;;;17.00;99.90;;;;;;5071449;28;20414;-75
2022/11/09 11:15:57;;;;;;;;;;;17.00;99.90;;;;;;5070800;28;20025;-76
2022/11/09 11:18:24;;;;;;;;;;;16.90;99.90;;;;;;5070769;28;19913;-75
2022/11/09 11:21:16;;;;;;;;;;;17.10;99.90;;;;;;5065674;28;20007;-76
2022/11/09 11:23:42;;;;;;;;;;;17.00;99.90;;;;;;5069915;28;20046;-76
2022/11/09 11:26:22;;;;;;;;;;;16.90;99.90;;;;;;5070809;28;19976;-76
2022/11/09 11:28:53;;;;;;;;;;;17.00;99.90;;;;;;5070694;28;19908;-76
2022/11/09 11:31:19;;;;;;;;;;;17.00;99.90;;;;;;5064206;28;19917;-76
2022/11/09 11:33:45;;;;;;;;;;;17.00;99.90;;;;;;5068646;28;19924;-75
2022/11/09 11:36:11;;;;;;;;;;;16.90;99.90;;;;;;5070421;28;19916;-76
2022/11/09 11:38:39;;;;;;;;;;;16.80;99.90;;;;;;5068336;28;19927;-76
2022/11/09 11:41:17;;;;;;;;;;;16.80;99.90;;;;;;5068640;28;19912;-76
2022/11/09 11:44:02;;;;;;;;;;;16.70;99.90;;;;;;5068861;28;19920;-76
2022/11/09 11:46:45;;;;;;;;;;;16.80;99.90;;;;;;5070221;28;19939;-76
2022/11/09 11:49:29;;;;;;;;;;;16.70;99.90;;;;;;5057650;28;19977;-76
2022/11/09 11:51:55;;;;;;;;;;;16.60;99.90;;;;;;5088822;28;19924;-76
2022/11/09 11:54:25;;;;;;;;;;;16.30;99.90;;;;;;5067709;28;19916;-76
2022/11/09 11:56:57;;;;;;;;;;;16.10;99.90;;;;;;5069901;28;20485;-76
2022/11/09 11:59:49;;;;;;;;;;;15.80;99.90;;;;;;5070359;28;19912;-75
2022/11/09 12:02:23;;;;;;;;;;;15.70;99.90;;;;;;5059612;28;19919;-76
2022/11/09 12:05:17;;;;;;;;;;;15.60;99.90;;;;;;5099964;28;19921;-76
2022/11/09 12:08:03;;;;;;;;;;;15.60;99.90;;;;;;5068320;28;19920;-75
2022/11/09 12:10:38;;;;;;;;;;;15.60;99.90;;;;;;5058538;28;20767;-74
2022/11/09 12:13:13;;;;;;;;;;;15.60;99.90;;;;;;5069586;28;19913;-75
2022/11/09 12:15:49;;;;;;;;;;;15.70;99.90;;;;;;5069041;28;20326;-76
2022/11/09 12:18:14;;;;;;;;;;;15.80;99.90;;;;;;5062217;28;20743;-75
2022/11/09 12:20:48;;;;;;;;;;;15.80;99.90;;;;;;5064913;28;20029;-75
2022/11/09 12:23:14;;;;;;;;;;;15.70;99.90;;;;;;5069840;28;19965;-75
2022/11/09 12:25:52;;;;;;;;;;;15.90;99.90;;;;;;5069421;28;20662;-75
2022/11/09 12:28:39;;;;;;;;;;;15.90;99.90;;;;;;5068223;28;19920;-75
2022/11/09 12:31:08;;;;;;;;;;;15.90;99.90;;;;;;5063094;28;19923;-75
2022/11/09 12:33:33;;;;;;;;;;;15.80;99.90;;;;;;5069149;28;19955;-75
2022/11/09 12:36:06;;;;;;;;;;;15.80;99.90;;;;;;5069140;28;19959;-76
2022/11/09 12:38:58;;;;;;;;;;;15.90;99.90;;;;;;5069312;28;19924;-75
2022/11/09 12:41:26;;;;;;;;;;;16.20;99.90;;;;;;5042913;28;20803;-75
2022/11/09 12:44:05;;;;;;;;;;;16.30;99.90;;;;;;5069326;28;19917;-75
2022/11/09 12:46:34;;;;;;;;;;;16.20;99.90;;;;;;5067959;28;19916;-75
2022/11/09 12:49:01;;;;;;;;;;;16.00;99.90;;;;;;5069167;28;20378;-75
2022/11/09 12:51:27;;;;;;;;;;;15.70;99.90;;;;;;5068430;28;19983;-76
2022/11/09 12:53:54;;;;;;;;;;;15.50;99.90;;;;;;5083567;28;20465;-76
2022/11/09 12:56:22;;;;;;;;;;;15.30;99.90;;;;;;5068221;28;19943;-77
2022/11/09 12:58:48;;;;;;;;;;;15.20;99.90;;;;;;5069384;28;19923;-76
2022/11/09 13:01:43;;;;;;;;;;;15.20;99.90;;;;;;5068588;28;19916;-77
2022/11/09 13:04:14;;;;;;;;;;;15.20;99.90;;;;;;5063843;28;19920;-76
2022/11/09 13:06:41;;;;;;;;;;;15.10;99.90;;;;;;5068842;28;19973;-76
2022/11/09 13:09:18;;;;;;;;;;;15.00;99.90;;;;;;5068974;28;19988;-75
2022/11/09 13:11:47;;;;;;;;;;;14.80;99.90;;;;;;5060155;28;19928;-76
2022/11/09 13:14:26;;;;;;;;;;;15.10;99.90;;;;;;5066558;28;20493;-77
2022/11/09 13:16:54;;;;;;;;;;;15.10;99.90;;;;;;5060132;28;20455;-75
2022/11/09 13:19:38;;;;;;;;;;;15.00;99.90;;;;;;5065721;28;19912;-75
2022/11/09 13:22:07;;;;;;;;;;;15.00;99.90;;;;;;5065499;28;19913;-75
2022/11/09 13:24:51;;;;;;;;;;;15.00;99.90;;;;;;5067577;28;19908;-74
2022/11/09 13:27:46;;;;;;;;;;;15.10;99.90;;;;;;5067077;28;19912;-75
2022/11/09 13:30:24;;;;;;;;;;;15.00;99.90;;;;;;5053070;28;19966;-76
2022/11/09 13:33:05;;;;;;;;;;;15.10;99.90;;;;;;5068271;28;19946;-75
2022/11/09 13:35:39;;;;;;;;;;;15.20;99.90;;;;;;5062931;28;20448;-76
2022/11/09 13:38:14;;;;;;;;;;;15.30;99.90;;;;;;5066078;28;19913;-75
2022/11/09 13:40:39;;;;;;;;;;;15.30;99.90;;;;;;5068211;28;19919;-75
2022/11/09 13:43:14;;;;;;;;;;;15.30;99.90;;;;;;5062889;28;19912;-75
2022/11/09 13:45:52;;;;;;;;;;;15.40;99.90;;;;;;5066271;28;19924;-74
2022/11/09 13:48:36;;;;;;;;;;;15.40;99.90;;;;;;5077973;28;20675;-75
2022/11/09 13:51:07;;;;;;;;;;;15.60;99.90;;;;;;5078392;28;19931;-75
2022/11/09 13:53:36;;;;;;;;;;;15.40;99.90;;;;;;5062205;28;19920;-75
2022/11/09 13:56:18;;;;;;;;;;;15.60;99.90;;;;;;5067293;28;21000;-75
2022/11/09 13:58:44;;;;;;;;;;;15.70;99.90;;;;;;5068149;28;19916;-75
2022/11/09 14:01:25;;;;;;;;;;;15.60;99.90;;;;;;5067671;28;19919;-75
2022/11/09 14:03:51;;;;;;;;;;;15.80;99.90;;;;;;5067642;28;19912;-75
2022/11/09 14:06:17;;;;;;;;;;;15.70;99.90;;;;;;5065866;28;19928;-75
2022/11/09 14:08:42;;;;;;;;;;;15.70;99.90;;;;;;5068101;28;19913;-75
2022/11/09 14:11:27;;;;;;;;;;;15.80;99.90;;;;;;5067711;28;20046;-74
2022/11/09 14:13:55;;;;;;;;;;;15.70;99.90;;;;;;5066580;28;19919;-75
2022/11/09 14:16:27;;;;;;;;;;;15.60;99.90;;;;;;5067729;28;19965;-75
2022/11/09 14:19:00;;;;;;;;;;;15.60;99.90;;;;;;5067021;28;20352;-75
2022/11/09 14:21:32;;;;;;;;;;;15.60;99.90;;;;;;5062184;28;19919;-75
2022/11/09 14:24:01;;;;;;;;;;;15.60;99.90;;;;;;5067516;28;19917;-75
2022/11/09 14:26:26;;;;;;;;;;;15.60;99.90;;;;;;5060582;28;19912;-75
2022/11/09 14:28:52;;;;;;;;;;;15.40;99.90;;;;;;5066343;28;20003;-75